sensor_id;sensor_type;location;lat;lon;timestamp;pressure;altitude;pressure_sealevel;temperature;humidity
11085;BME280;5596;46.826;8.650;2023-05-22T00:01:02;95950.69;;;14.82;100.00
11085;BME280;5596;46.826;8.650;2023-05-22T00:03:30;95952.03;;;14.69;99.93
11085;BME280;5596;46.826;8.650;2023-05-22T00:05:57;95948.50;;;14.69;99.68
11085;BME280;5596;46.826;8.650;2023-05-22T00:08:24;95941.97;;;14.70;100.00
11085;BME280;5596;46.826;8.650;2023-05-22T00:10:53;95946.28;;;14.66;100.00
11085;BME280;5596;46.826;8.650;2023-05-22T00:13:19;95948.19;;;14.60;100.00
11085;BME280;5596;46.826;8.650;2023-05-22T00:15:46;95944.59;;;14.55;100.00
11085;BME280;5596;46.826;8.650;2023-05-22T00:18:13;95955.47;;;14.55;100.00
11085;BME280;5596;46.826;8.650;2023-05-22T00:20:40;95958.47;;;14.53;100.00
11085;BME280;5596;46.826;8.650;2023-05-22T00:23:11;95954.69;;;14.54;100.00
11085;BME280;5596;46.826;8.650;2023-05-22T00:25:38;95957.66;;;14.53;100.00
11085;BME280;5596;46.826;8.650;2023-05-22T00:28:06;95958.44;;;14.48;100.00
11085;BME280;5596;46.826;8.650;2023-05-22T00:30:33;95964.69;;;14.49;100.00
11085;BME280;5596;46.826;8.650;2023-05-22T00:33:00;95965.25;;;14.51;100.00
11085;BME280;5596;46.826;8.650;2023-05-22T00:35:27;95959.81;;;14.51;100.00
11085;BME280;5596;46.826;8.650;2023-05-22T00:37:54;95960.88;;;14.45;100.00
11085;BME280;5596;46.826;8.650;2023-05-22T00:40:21;95963.47;;;14.29;100.00
11085;BME280;5596;46.826;8.650;2023-05-22T00:42:48;95966.97;;;14.20;100.00
11085;BME280;5596;46.826;8.650;2023-05-22T00:45:16;95963.34;;;14.09;100.00
11085;BME280;5596;46.826;8.650;2023-05-22T00:47:43;95965.47;;;14.02;100.00
11085;BME280;5596;46.826;8.650;2023-05-22T00:50:10;95966.47;;;13.91;100.00
11085;BME280;5596;46.826;8.650;2023-05-22T00:52:40;95972.38;;;13.83;100.00
11085;BME280;5596;46.826;8.650;2023-05-22T00:55:08;95980.03;;;13.86;100.00
11085;BME280;5596;46.826;8.650;2023-05-22T00:57:37;95974.38;;;13.92;100.00
11085;BME280;5596;46.826;8.650;2023-05-22T01:00:06;95972.22;;;13.94;100.00
11085;BME280;5596;46.826;8.650;2023-05-22T01:02:36;95973.81;;;13.90;100.00
11085;BME280;5596;46.826;8.650;2023-05-22T01:05:04;95977.09;;;13.92;100.00
11085;BME280;5596;46.826;8.650;2023-05-22T01:07:32;95982.75;;;13.86;100.00
11085;BME280;5596;46.826;8.650;2023-05-22T01:10:02;95978.88;;;13.82;100.00
11085;BME280;5596;46.826;8.650;2023-05-22T01:12:32;95975.88;;;13.78;100.00
11085;BME280;5596;46.826;8.650;2023-05-22T01:15:02;95983.22;;;13.78;100.00
11085;BME280;5596;46.826;8.650;2023-05-22T01:17:36;95985.28;;;13.66;100.00
11085;BME280;5596;46.826;8.650;2023-05-22T01:20:07;95985.16;;;13.50;100.00
11085;BME280;5596;46.826;8.650;2023-05-22T01:22:49;95981.88;;;13.48;100.00
11085;BME280;5596;46.826;8.650;2023-05-22T01:25:35;95980.72;;;13.44;100.00
11085;BME280;5596;46.826;8.650;2023-05-22T01:28:09;95989.44;;;13.46;100.00
11085;BME280;5596;46.826;8.650;2023-05-22T01:30:49;95981.88;;;13.48;100.00
11085;BME280;5596;46.826;8.650;2023-05-22T01:33:19;95982.72;;;13.54;100.00
11085;BME280;5596;46.826;8.650;2023-05-22T01:35:50;95988.13;;;13.54;100.00
11085;BME280;5596;46.826;8.650;2023-05-22T01:38:20;95984.00;;;13.46;100.00
11085;BME280;5596;46.826;8.650;2023-05-22T01:40:47;95985.28;;;13.39;100.00
11085;BME280;5596;46.826;8.650;2023-05-22T01:43:14;95989.28;;;13.31;100.00
11085;BME280;5596;46.826;8.650;2023-05-22T01:45:41;95983.38;;;13.34;100.00
11085;BME280;5596;46.826;8.650;2023-05-22T01:48:09;95985.00;;;13.35;100.00
11085;BME280;5596;46.826;8.650;2023-05-22T01:50:38;95988.47;;;13.31;100.00
11085;BME280;5596;46.826;8.650;2023-05-22T01:53:06;95987.66;;;13.30;100.00
11085;BME280;5596;46.826;8.650;2023-05-22T01:55:39;95988.47;;;13.31;100.00
11085;BME280;5596;46.826;8.650;2023-05-22T01:58:11;95988.69;;;13.24;100.00
11085;BME280;5596;46.826;8.650;2023-05-22T02:00:40;95987.00;;;13.18;100.00
11085;BME280;5596;46.826;8.650;2023-05-22T02:03:14;95987.53;;;13.20;100.00
11085;BME280;5596;46.826;8.650;2023-05-22T02:05:41;95982.13;;;13.20;100.00
11085;BME280;5596;46.826;8.650;2023-05-22T02:08:09;95984.06;;;13.24;100.00
11085;BME280;5596;46.826;8.650;2023-05-22T02:10:39;95987.97;;;13.34;100.00
11085;BME280;5596;46.826;8.650;2023-05-22T02:13:08;95983.63;;;13.33;100.00
11085;BME280;5596;46.826;8.650;2023-05-22T02:15:35;95981.19;;;13.36;100.00
11085;BME280;5596;46.826;8.650;2023-05-22T02:18:04;95988.25;;;13.37;100.00
11085;BME280;5596;46.826;8.650;2023-05-22T02:20:36;95985.03;;;13.40;100.00
11085;BME280;5596;46.826;8.650;2023-05-22T02:23:03;95979.63;;;13.40;100.00
11085;BME280;5596;46.826;8.650;2023-05-22T02:25:30;95985.63;;;13.42;100.00
11085;BME280;5596;46.826;8.650;2023-05-22T02:27:58;95984.25;;;13.45;100.00
11085;BME280;5596;46.826;8.650;2023-05-22T02:30:25;95978.00;;;13.44;100.00
11085;BME280;5596;46.826;8.650;2023-05-22T02:32:53;95983.75;;;13.48;100.00
11085;BME280;5596;46.826;8.650;2023-05-22T02:35:22;95977.00;;;13.50;100.00
11085;BME280;5596;46.826;8.650;2023-05-22T02:37:51;95975.38;;;13.49;100.00
11085;BME280;5596;46.826;8.650;2023-05-22T02:40:18;95980.19;;;13.42;100.00
11085;BME280;5596;46.826;8.650;2023-05-22T02:42:45;95971.94;;;13.32;100.00
11085;BME280;5596;46.826;8.650;2023-05-22T02:45:12;95969.44;;;13.25;100.00
11085;BME280;5596;46.826;8.650;2023-05-22T02:47:40;95979.16;;;13.21;100.00
11085;BME280;5596;46.826;8.650;2023-05-22T02:50:07;95975.88;;;13.19;100.00
11085;BME280;5596;46.826;8.650;2023-05-22T02:52:35;95968.31;;;13.21;100.00
11085;BME280;5596;46.826;8.650;2023-05-22T02:55:05;95980.28;;;13.25;100.00
11085;BME280;5596;46.826;8.650;2023-05-22T02:57:33;95967.28;;;13.27;100.00
11085;BME280;5596;46.826;8.650;2023-05-22T03:00:00;95974.88;;;13.25;100.00
11085;BME280;5596;46.826;8.650;2023-05-22T03:02:28;95973.53;;;13.28;100.00
11085;BME280;5596;46.826;8.650;2023-05-22T03:04:56;95960.75;;;13.23;100.00
11085;BME280;5596;46.826;8.650;2023-05-22T03:07:23;95964.03;;;13.25;100.00
11085;BME280;5596;46.826;8.650;2023-05-22T03:09:53;95962.16;;;13.31;100.00
11085;BME280;5596;46.826;8.650;2023-05-22T03:12:21;95959.22;;;13.33;100.00
11085;BME280;5596;46.826;8.650;2023-05-22T03:14:49;95957.88;;;13.35;100.00
11085;BME280;5596;46.826;8.650;2023-05-22T03:17:16;95961.66;;;13.34;100.00
11085;BME280;5596;46.826;8.650;2023-05-22T03:19:44;95955.38;;;13.29;100.00
11085;BME280;5596;46.826;8.650;2023-05-22T03:22:10;95958.78;;;13.19;100.00
11085;BME280;5596;46.826;8.650;2023-05-22T03:24:38;95968.53;;;13.15;100.00
11085;BME280;5596;46.826;8.650;2023-05-22T03:27:05;95968.34;;;13.00;100.00
11085;BME280;5596;46.826;8.650;2023-05-22T03:29:39;95961.72;;;12.91;100.00
11085;BME280;5596;46.826;8.650;2023-05-22T03:32:06;95963.28;;;12.86;100.00
11085;BME280;5596;46.826;8.650;2023-05-22T03:34:33;95959.25;;;12.89;100.00
11085;BME280;5596;46.826;8.650;2023-05-22T03:37:01;95963.91;;;12.94;100.00
11085;BME280;5596;46.826;8.650;2023-05-22T03:39:28;95957.41;;;12.95;100.00
11085;BME280;5596;46.826;8.650;2023-05-22T03:41:59;95945.06;;;13.04;100.00
11085;BME280;5596;46.826;8.650;2023-05-22T03:44:26;95947.19;;;13.02;100.00
11085;BME280;5596;46.826;8.650;2023-05-22T03:46:54;95947.19;;;13.02;100.00
11085;BME280;5596;46.826;8.650;2023-05-22T03:49:21;95947.50;;;13.05;100.00
11085;BME280;5596;46.826;8.650;2023-05-22T03:51:48;95954.81;;;13.05;100.00
11085;BME280;5596;46.826;8.650;2023-05-22T03:54:15;95957.13;;;12.91;100.00
11085;BME280;5596;46.826;8.650;2023-05-22T03:56:42;95952.47;;;12.86;100.00
11085;BME280;5596;46.826;8.650;2023-05-22T03:59:08;95955.16;;;12.86;100.00
11085;BME280;5596;46.826;8.650;2023-05-22T04:01:35;95952.16;;;12.83;100.00
11085;BME280;5596;46.826;8.650;2023-05-22T04:04:05;95951.34;;;12.82;100.00
11085;BME280;5596;46.826;8.650;2023-05-22T04:06:35;95952.91;;;12.78;100.00
11085;BME280;5596;46.826;8.650;2023-05-22T04:09:08;95952.03;;;12.73;100.00
11085;BME280;5596;46.826;8.650;2023-05-22T04:11:35;95947.38;;;12.68;100.00
11085;BME280;5596;46.826;8.650;2023-05-22T04:14:03;95952.25;;;12.66;100.00
11085;BME280;5596;46.826;8.650;2023-05-22T04:16:31;95942.84;;;12.52;100.00
11085;BME280;5596;46.826;8.650;2023-05-22T04:18:57;95946.81;;;12.44;100.00
11085;BME280;5596;46.826;8.650;2023-05-22T04:21:27;95950.91;;;12.47;100.00
11085;BME280;5596;46.826;8.650;2023-05-22T04:23:54;95956.91;;;12.49;100.00
11085;BME280;5596;46.826;8.650;2023-05-22T04:26:22;95954.69;;;12.46;100.00
11085;BME280;5596;46.826;8.650;2023-05-22T04:28:50;95963.06;;;12.44;100.00
11085;BME280;5596;46.826;8.650;2023-05-22T04:31:17;95954.94;;;12.44;100.00
11085;BME280;5596;46.826;8.650;2023-05-22T04:33:48;95963.63;;;12.46;100.00
11085;BME280;5596;46.826;8.650;2023-05-22T04:36:15;95963.88;;;12.45;100.00
11085;BME280;5596;46.826;8.650;2023-05-22T04:38:43;95968.16;;;12.41;100.00
11085;BME280;5596;46.826;8.650;2023-05-22T04:41:11;95976.97;;;12.31;100.00
11085;BME280;5596;46.826;8.650;2023-05-22T04:43:42;95965.31;;;12.31;100.00
11085;BME280;5596;46.826;8.650;2023-05-22T04:46:09;95968.34;;;12.34;100.00
11085;BME280;5596;46.826;8.650;2023-05-22T04:48:36;95971.38;;;12.38;100.00
11085;BME280;5596;46.826;8.650;2023-05-22T04:51:04;95967.34;;;12.40;100.00
11085;BME280;5596;46.826;8.650;2023-05-22T04:53:31;95975.53;;;12.45;100.00
11085;BME280;5596;46.826;8.650;2023-05-22T04:56:00;95976.34;;;12.46;100.00
11085;BME280;5596;46.826;8.650;2023-05-22T04:58:27;95983.59;;;12.40;100.00
11085;BME280;5596;46.826;8.650;2023-05-22T05:00:55;95982.78;;;12.40;100.00
11085;BME280;5596;46.826;8.650;2023-05-22T05:03:22;95996.84;;;12.42;100.00
11085;BME280;5596;46.826;8.650;2023-05-22T05:05:50;95991.53;;;12.47;100.00
11085;BME280;5596;46.826;8.650;2023-05-22T05:08:17;95994.53;;;12.50;100.00
11085;BME280;5596;46.826;8.650;2023-05-22T05:10:44;95992.09;;;12.49;100.00
11085;BME280;5596;46.826;8.650;2023-05-22T05:13:12;95990.72;;;12.46;100.00
11085;BME280;5596;46.826;8.650;2023-05-22T05:15:39;95995.06;;;12.47;100.00
11085;BME280;5596;46.826;8.650;2023-05-22T05:18:06;95994.25;;;12.47;100.00
11085;BME280;5596;46.826;8.650;2023-05-22T05:20:33;95998.59;;;12.48;100.00
11085;BME280;5596;46.826;8.650;2023-05-22T05:23:01;96004.19;;;12.41;100.00
11085;BME280;5596;46.826;8.650;2023-05-22T05:25:28;95996.81;;;12.37;100.00
11085;BME280;5596;46.826;8.650;2023-05-22T05:27:55;96000.00;;;12.34;100.00
11085;BME280;5596;46.826;8.650;2023-05-22T05:30:24;96002.66;;;12.29;100.00
11085;BME280;5596;46.826;8.650;2023-05-22T05:33:05;96000.81;;;12.34;100.00
11085;BME280;5596;46.826;8.650;2023-05-22T05:35:59;95999.03;;;12.40;100.00
11085;BME280;5596;46.826;8.650;2023-05-22T05:38:27;96002.38;;;12.47;100.00
11085;BME280;5596;46.826;8.650;2023-05-22T05:40:54;95995.63;;;12.49;100.00
11085;BME280;5596;46.826;8.650;2023-05-22T05:43:21;95985.53;;;12.45;100.00
11085;BME280;5596;46.826;8.650;2023-05-22T05:45:51;95987.19;;;12.46;100.00
11085;BME280;5596;46.826;8.650;2023-05-22T05:48:18;95992.78;;;12.39;100.00
11085;BME280;5596;46.826;8.650;2023-05-22T05:50:46;95995.94;;;12.31;100.00
11085;BME280;5596;46.826;8.650;2023-05-22T05:53:14;95998.94;;;12.35;100.00
11085;BME280;5596;46.826;8.650;2023-05-22T05:55:46;96004.88;;;12.32;100.00
11085;BME280;5596;46.826;8.650;2023-05-22T05:58:13;96000.56;;;12.36;100.00
11085;BME280;5596;46.826;8.650;2023-05-22T06:00:58;96001.72;;;12.40;100.00
11085;BME280;5596;46.826;8.650;2023-05-22T06:03:25;95996.84;;;12.42;100.00
11085;BME280;5596;46.826;8.650;2023-05-22T06:06:09;95995.25;;;12.41;100.00
11085;BME280;5596;46.826;8.650;2023-05-22T06:09:02;95991.97;;;12.39;100.00
11085;BME280;5596;46.826;8.650;2023-05-22T06:11:34;95996.94;;;12.47;100.00
11085;BME280;5596;46.826;8.650;2023-05-22T06:14:02;95992.34;;;12.47;100.00
11085;BME280;5596;46.826;8.650;2023-05-22T06:16:31;95985.09;;;12.53;100.00
11085;BME280;5596;46.826;8.650;2023-05-22T06:18:58;95992.75;;;12.56;100.00
11085;BME280;5596;46.826;8.650;2023-05-22T06:21:25;95993.38;;;12.63;100.00
11085;BME280;5596;46.826;8.650;2023-05-22T06:23:52;95995.63;;;12.71;100.00
11085;BME280;5596;46.826;8.650;2023-05-22T06:26:19;95992.69;;;12.73;100.00
11085;BME280;5596;46.826;8.650;2023-05-22T06:28:47;95994.91;;;12.76;100.00
11085;BME280;5596;46.826;8.650;2023-05-22T06:31:17;95989.72;;;12.74;100.00
11085;BME280;5596;46.826;8.650;2023-05-22T06:33:49;95982.34;;;12.70;100.00
11085;BME280;5596;46.826;8.650;2023-05-22T06:36:19;95976.41;;;12.73;100.00
11085;BME280;5596;46.826;8.650;2023-05-22T06:38:46;95976.19;;;12.74;100.00
11085;BME280;5596;46.826;8.650;2023-05-22T06:41:45;95976.09;;;12.69;100.00
11085;BME280;5596;46.826;8.650;2023-05-22T06:44:13;95974.78;;;12.72;100.00
11085;BME280;5596;46.826;8.650;2023-05-22T06:46:40;95972.41;;;12.75;100.00
11085;BME280;5596;46.826;8.650;2023-05-22T06:49:12;95975.72;;;12.82;100.00
11085;BME280;5596;46.826;8.650;2023-05-22T06:51:48;95975.53;;;12.89;100.00
11085;BME280;5596;46.826;8.650;2023-05-22T06:54:15;95975.66;;;12.99;100.00
11085;BME280;5596;46.826;8.650;2023-05-22T06:56:46;95981.34;;;13.03;100.00
11085;BME280;5596;46.826;8.650;2023-05-22T06:59:17;95964.03;;;13.04;100.00
11085;BME280;5596;46.826;8.650;2023-05-22T07:02:10;95970.06;;;13.11;100.00
11085;BME280;5596;46.826;8.650;2023-05-22T07:04:59;95970.63;;;13.13;100.00
11085;BME280;5596;46.826;8.650;2023-05-22T07:07:39;95968.03;;;13.18;100.00
11085;BME280;5596;46.826;8.650;2023-05-22T07:10:07;95968.41;;;13.32;100.00
11085;BME280;5596;46.826;8.650;2023-05-22T07:12:34;95970.44;;;13.78;100.00
11085;BME280;5596;46.826;8.650;2023-05-22T07:15:01;95971.91;;;14.28;100.00
11085;BME280;5596;46.826;8.650;2023-05-22T07:17:30;95982.47;;;14.71;100.00
11085;BME280;5596;46.826;8.650;2023-05-22T07:19:57;95977.19;;;15.12;100.00
11085;BME280;5596;46.826;8.650;2023-05-22T07:22:26;95978.66;;;15.55;100.00
11085;BME280;5596;46.826;8.650;2023-05-22T07:24:54;95973.78;;;15.87;100.00
11085;BME280;5596;46.826;8.650;2023-05-22T07:27:26;95977.84;;;16.15;100.00
11085;BME280;5596;46.826;8.650;2023-05-22T07:29:53;95972.84;;;16.53;100.00
11085;BME280;5596;46.826;8.650;2023-05-22T07:32:20;95971.75;;;16.69;100.00
11085;BME280;5596;46.826;8.650;2023-05-22T07:34:47;95976.91;;;16.81;100.00
11085;BME280;5596;46.826;8.650;2023-05-22T07:37:13;95967.56;;;16.97;100.00
11085;BME280;5596;46.826;8.650;2023-05-22T07:39:46;95973.97;;;17.26;100.00
11085;BME280;5596;46.826;8.650;2023-05-22T07:42:13;95968.91;;;17.49;100.00
11085;BME280;5596;46.826;8.650;2023-05-22T07:44:47;95978.00;;;17.78;99.67
11085;BME280;5596;46.826;8.650;2023-05-22T07:47:16;95971.03;;;17.96;99.38
11085;BME280;5596;46.826;8.650;2023-05-22T07:49:43;95969.00;;;18.11;100.00
11085;BME280;5596;46.826;8.650;2023-05-22T07:52:10;95971.16;;;18.43;98.96
11085;BME280;5596;46.826;8.650;2023-05-22T07:54:38;95960.72;;;18.74;89.56
11085;BME280;5596;46.826;8.650;2023-05-22T07:57:08;95966.56;;;19.10;87.03
11085;BME280;5596;46.826;8.650;2023-05-22T07:59:37;95961.19;;;19.43;87.81
11085;BME280;5596;46.826;8.650;2023-05-22T08:02:05;95965.22;;;19.69;86.84
11085;BME280;5596;46.826;8.650;2023-05-22T08:04:33;95961.56;;;19.92;83.01
11085;BME280;5596;46.826;8.650;2023-05-22T08:06:59;95957.25;;;20.05;79.35
11085;BME280;5596;46.826;8.650;2023-05-22T08:09:27;95958.06;;;20.06;77.73
11085;BME280;5596;46.826;8.650;2023-05-22T08:11:53;95949.06;;;20.19;79.07
11085;BME280;5596;46.826;8.650;2023-05-22T08:14:22;95944.97;;;20.35;79.29
11085;BME280;5596;46.826;8.650;2023-05-22T08:16:49;95952.13;;;20.50;73.00
11085;BME280;5596;46.826;8.650;2023-05-22T08:19:16;95942.38;;;20.57;71.23
11085;BME280;5596;46.826;8.650;2023-05-22T08:21:42;95951.31;;;20.63;71.19
11085;BME280;5596;46.826;8.650;2023-05-22T08:24:09;95946.22;;;20.70;71.00
11085;BME280;5596;46.826;8.650;2023-05-22T08:26:36;95950.22;;;20.91;71.14
11085;BME280;5596;46.826;8.650;2023-05-22T08:29:04;95942.66;;;21.10;68.93
11085;BME280;5596;46.826;8.650;2023-05-22T08:31:32;95946.25;;;21.25;68.34
11085;BME280;5596;46.826;8.650;2023-05-22T08:34:00;95944.41;;;21.20;69.11
11085;BME280;5596;46.826;8.650;2023-05-22T08:36:28;95942.69;;;20.97;72.08
11085;BME280;5596;46.826;8.650;2023-05-22T08:38:55;95941.06;;;21.09;73.40
11085;BME280;5596;46.826;8.650;2023-05-22T08:41:23;95939.50;;;21.31;71.96
11085;BME280;5596;46.826;8.650;2023-05-22T08:43:50;95936.47;;;21.19;71.53
11085;BME280;5596;46.826;8.650;2023-05-22T08:46:16;95936.13;;;21.47;71.84
11085;BME280;5596;46.826;8.650;2023-05-22T08:48:46;95934.88;;;21.53;70.49
11085;BME280;5596;46.826;8.650;2023-05-22T08:51:14;95933.59;;;21.73;71.27
11085;BME280;5596;46.826;8.650;2023-05-22T08:53:43;95930.59;;;21.83;70.41
11085;BME280;5596;46.826;8.650;2023-05-22T08:56:11;95933.19;;;22.02;69.65
11085;BME280;5596;46.826;8.650;2023-05-22T08:58:38;95930.38;;;22.16;70.04
11085;BME280;5596;46.826;8.650;2023-05-22T09:01:05;95925.19;;;22.14;68.19
11085;BME280;5596;46.826;8.650;2023-05-22T09:03:32;95927.53;;;22.30;68.40
11085;BME280;5596;46.826;8.650;2023-05-22T09:06:02;95931.50;;;22.15;67.25
11085;BME280;5596;46.826;8.650;2023-05-22T09:08:36;95924.25;;;22.19;67.22
11085;BME280;5596;46.826;8.650;2023-05-22T09:11:03;95927.09;;;22.36;67.71
11085;BME280;5596;46.826;8.650;2023-05-22T09:13:30;95930.00;;;22.40;68.46
11085;BME280;5596;46.826;8.650;2023-05-22T09:15:57;95923.03;;;22.34;66.27
11085;BME280;5596;46.826;8.650;2023-05-22T09:18:28;95924.22;;;22.41;66.34
11085;BME280;5596;46.826;8.650;2023-05-22T09:20:58;95922.31;;;22.50;68.71
11085;BME280;5596;46.826;8.650;2023-05-22T09:23:28;95921.38;;;22.63;67.83
11085;BME280;5596;46.826;8.650;2023-05-22T09:25:57;95918.81;;;22.67;67.35
11085;BME280;5596;46.826;8.650;2023-05-22T09:28:24;95921.34;;;22.77;67.89
11085;BME280;5596;46.826;8.650;2023-05-22T09:30:51;95925.91;;;22.90;67.18
11085;BME280;5596;46.826;8.650;2023-05-22T09:33:19;95915.69;;;22.91;68.46
11085;BME280;5596;46.826;8.650;2023-05-22T09:35:46;95923.97;;;22.99;68.40
11085;BME280;5596;46.826;8.650;2023-05-22T09:38:14;95925.94;;;23.08;66.77
11085;BME280;5596;46.826;8.650;2023-05-22T09:40:42;95922.59;;;23.19;65.93
11085;BME280;5596;46.826;8.650;2023-05-22T09:43:09;95910.59;;;23.24;66.09
11085;BME280;5596;46.826;8.650;2023-05-22T09:45:36;95911.91;;;23.26;66.09
11085;BME280;5596;46.826;8.650;2023-05-22T09:48:04;95914.97;;;23.25;66.93
11085;BME280;5596;46.826;8.650;2023-05-22T09:50:31;95914.34;;;23.28;65.87
11085;BME280;5596;46.826;8.650;2023-05-22T09:52:59;95917.41;;;23.26;67.97
11085;BME280;5596;46.826;8.650;2023-05-22T09:55:26;95906.41;;;23.26;68.88
11085;BME280;5596;46.826;8.650;2023-05-22T09:57:55;95905.44;;;23.39;68.29
11085;BME280;5596;46.826;8.650;2023-05-22T10:00:23;95903.66;;;23.44;67.84
11085;BME280;5596;46.826;8.650;2023-05-22T10:02:52;95900.91;;;23.44;68.45
11085;BME280;5596;46.826;8.650;2023-05-22T10:05:19;95899.44;;;23.37;66.90
11085;BME280;5596;46.826;8.650;2023-05-22T10:07:47;95892.94;;;23.33;68.04
11085;BME280;5596;46.826;8.650;2023-05-22T10:10:15;95893.94;;;23.37;67.06
11085;BME280;5596;46.826;8.650;2023-05-22T10:12:44;95877.44;;;23.55;66.65
11085;BME280;5596;46.826;8.650;2023-05-22T10:15:15;95876.97;;;23.53;68.13
11085;BME280;5596;46.826;8.650;2023-05-22T10:17:42;95873.88;;;23.54;68.42
11085;BME280;5596;46.826;8.650;2023-05-22T10:20:10;95883.78;;;23.64;68.55
11085;BME280;5596;46.826;8.650;2023-05-22T10:22:37;95876.78;;;23.66;67.91
11085;BME280;5596;46.826;8.650;2023-05-22T10:25:05;95871.13;;;23.71;69.30
11085;BME280;5596;46.826;8.650;2023-05-22T10:27:32;95868.69;;;23.70;69.34
11085;BME280;5596;46.826;8.650;2023-05-22T10:30:00;95872.41;;;23.74;69.36
11085;BME280;5596;46.826;8.650;2023-05-22T10:32:34;95870.63;;;23.69;68.95
11085;BME280;5596;46.826;8.650;2023-05-22T10:35:07;95865.94;;;23.70;69.24
11085;BME280;5596;46.826;8.650;2023-05-22T10:37:41;95857.16;;;23.68;69.29
11085;BME280;5596;46.826;8.650;2023-05-22T10:40:12;95855.84;;;23.91;72.07
11085;BME280;5596;46.826;8.650;2023-05-22T10:42:39;95847.69;;;24.21;70.28
11085;BME280;5596;46.826;8.650;2023-05-22T10:45:07;95857.09;;;24.28;68.36
11085;BME280;5596;46.826;8.650;2023-05-22T10:47:36;95853.75;;;24.52;69.17
11085;BME280;5596;46.826;8.650;2023-05-22T10:50:03;95848.63;;;24.71;68.24
11085;BME280;5596;46.826;8.650;2023-05-22T10:52:32;95846.81;;;24.75;66.32
11085;BME280;5596;46.826;8.650;2023-05-22T10:54:59;95851.81;;;24.82;66.58
11085;BME280;5596;46.826;8.650;2023-05-22T10:57:30;95849.91;;;24.74;65.30
11085;BME280;5596;46.826;8.650;2023-05-22T11:00:06;95851.50;;;24.83;64.90
11085;BME280;5596;46.826;8.650;2023-05-22T11:02:37;95846.75;;;24.93;64.60
11085;BME280;5596;46.826;8.650;2023-05-22T11:07:59;95853.34;;;24.33;64.88
11085;BME280;5596;46.826;8.650;2023-05-22T11:13:16;95851.44;;;23.99;66.91
11085;BME280;5596;46.826;8.650;2023-05-22T11:15:43;95848.38;;;23.83;65.17
11085;BME280;5596;46.826;8.650;2023-05-22T11:18:12;95843.53;;;23.80;67.10
11085;BME280;5596;46.826;8.650;2023-05-22T11:20:39;95838.81;;;23.89;68.82
11085;BME280;5596;46.826;8.650;2023-05-22T11:23:06;95840.06;;;24.09;70.22
11085;BME280;5596;46.826;8.650;2023-05-22T11:25:34;95842.66;;;24.23;68.94
11085;BME280;5596;46.826;8.650;2023-05-22T11:28:02;95835.13;;;24.40;62.64
11085;BME280;5596;46.826;8.650;2023-05-22T11:30:30;95845.66;;;24.47;64.49
11085;BME280;5596;46.826;8.650;2023-05-22T11:32:57;95839.94;;;24.52;62.93
11085;BME280;5596;46.826;8.650;2023-05-22T11:35:27;95833.94;;;24.50;63.87
11085;BME280;5596;46.826;8.650;2023-05-22T11:37:55;95840.22;;;24.59;64.09
11085;BME280;5596;46.826;8.650;2023-05-22T11:40:23;95837.91;;;24.70;63.82
11085;BME280;5596;46.826;8.650;2023-05-22T11:42:51;95848.78;;;24.75;62.87
11085;BME280;5596;46.826;8.650;2023-05-22T11:45:18;95841.75;;;24.77;63.10
11085;BME280;5596;46.826;8.650;2023-05-22T11:47:44;95839.00;;;24.77;61.55
11085;BME280;5596;46.826;8.650;2023-05-22T11:50:12;95830.06;;;25.10;61.62
11085;BME280;5596;46.826;8.650;2023-05-22T11:52:41;95828.06;;;25.60;60.82
11085;BME280;5596;46.826;8.650;2023-05-22T11:55:09;95825.53;;;25.88;57.14
11085;BME280;5596;46.826;8.650;2023-05-22T11:57:37;95825.88;;;25.87;56.34
11085;BME280;5596;46.826;8.650;2023-05-22T12:00:05;95828.47;;;26.04;56.95
11085;BME280;5596;46.826;8.650;2023-05-22T12:02:42;95824.06;;;26.03;55.53
11085;BME280;5596;46.826;8.650;2023-05-22T12:05:10;95824.53;;;25.93;56.47
11085;BME280;5596;46.826;8.650;2023-05-22T12:07:36;95823.09;;;25.87;56.62
11085;BME280;5596;46.826;8.650;2023-05-22T12:10:05;95816.19;;;25.81;56.95
11085;BME280;5596;46.826;8.650;2023-05-22T12:12:32;95807.78;;;25.89;57.22
11085;BME280;5596;46.826;8.650;2023-05-22T12:14:59;95816.38;;;26.09;56.99
11085;BME280;5596;46.826;8.650;2023-05-22T12:17:26;95813.13;;;26.40;54.07
11085;BME280;5596;46.826;8.650;2023-05-22T12:19:54;95807.16;;;26.62;52.34
11085;BME280;5596;46.826;8.650;2023-05-22T12:22:21;95803.69;;;26.77;50.67
11085;BME280;5596;46.826;8.650;2023-05-22T12:24:50;95807.47;;;27.09;53.04
11085;BME280;5596;46.826;8.650;2023-05-22T12:27:21;95805.13;;;27.23;51.87
11085;BME280;5596;46.826;8.650;2023-05-22T12:29:47;95802.47;;;27.39;50.06
11085;BME280;5596;46.826;8.650;2023-05-22T12:32:20;95795.50;;;27.45;49.76
11085;BME280;5596;46.826;8.650;2023-05-22T12:34:47;95804.78;;;27.25;49.77
11085;BME280;5596;46.826;8.650;2023-05-22T12:37:21;95802.06;;;27.13;49.40
11085;BME280;5596;46.826;8.650;2023-05-22T12:39:53;95801.59;;;26.98;49.79
11085;BME280;5596;46.826;8.650;2023-05-22T12:42:22;95799.16;;;26.97;49.96
11085;BME280;5596;46.826;8.650;2023-05-22T12:44:49;95799.75;;;26.78;50.06
11085;BME280;5596;46.826;8.650;2023-05-22T12:47:17;95800.91;;;26.65;52.41
11085;BME280;5596;46.826;8.650;2023-05-22T12:49:44;95794.00;;;26.71;52.50
11085;BME280;5596;46.826;8.650;2023-05-22T12:52:10;95787.88;;;26.53;50.57
11085;BME280;5596;46.826;8.650;2023-05-22T12:54:37;95794.00;;;26.71;51.29
11085;BME280;5596;46.826;8.650;2023-05-22T12:57:05;95795.16;;;26.94;50.53
11085;BME280;5596;46.826;8.650;2023-05-22T12:59:33;95790.50;;;27.10;52.42
11085;BME280;5596;46.826;8.650;2023-05-22T13:02:01;95791.38;;;27.39;49.78
11085;BME280;5596;46.826;8.650;2023-05-22T13:04:28;95794.50;;;27.37;49.87
11085;BME280;5596;46.826;8.650;2023-05-22T13:06:55;95793.69;;;27.37;48.62
11085;BME280;5596;46.826;8.650;2023-05-22T13:09:22;95785.81;;;27.39;48.80
11085;BME280;5596;46.826;8.650;2023-05-22T13:11:49;95783.34;;;27.62;47.94
11085;BME280;5596;46.826;8.650;2023-05-22T13:14:15;95777.22;;;27.56;48.65
11085;BME280;5596;46.826;8.650;2023-05-22T13:16:44;95778.09;;;27.32;48.65
11085;BME280;5596;46.826;8.650;2023-05-22T13:19:11;95775.16;;;27.41;48.70